Sign in:
Email
 Password  save:
  
 Company Reports 
 
   
My Recent Searches
  Help
 
   
 
 
Get Institutions for : 
Sigma-Aldrich Corp (SIAL)    
$134.99 0.59 (0.44%) as of 4:30 Mon 10/20


Download
     
Institutional Holders
Viewing Quarter :
  
Total Institutions: 493    13
Total shares held : 
97,474,517  
% of shares held : 
81.91%  
Changes In:
New/increased positions vs   
old/decreased positions : 
  -54  
Amount of shares held : 
1,056,914  
% of shares held change : 
  0.89%  
Quarter Price vs. Current Price:
Last Quarter's Starting Price
$94.59  
Last Quarter's Ending Price : 
$101.48  
Last Quarter's Average Price
$96.97  
Change from last quarter's     
avg. price to the last closing  : 
38.02 (39.21%)  




 
All Securities Held :
Positions
     Shares
% Of
Total Shares
New Positions :
19
 2,447,759
 2.51%
 
Increased Positions :
154
 3,263,602
 3.35%
 
Unchanged Positions :
125
 17,882,613
 18.35%
 
Decreased Positions :
195
-3,124,688
-3.21%
 
Closed Positions :
32
-1,529,759
-1.57%
 
Guru Positions :
3
95,239
 0.1%
 
View holdings for period: 
9-30-2012 View holdings for period: 
12-31-2012 View holdings for period: 
3-31-2013 View holdings for period: 
6-30-2013 View holdings for period: 
9-30-2013 View holdings for period: 
12-31-2013 View holdings for period: 
3-31-2014 View holdings for the current period

  Page 1 of 1  
Free Registration Required For Full Results


            Institution Name
Portfolio
Position
New/Closed
Position

Filing Date

Total Shares

Total Value

Change in Shares

File
   STATE FARM MUTUAL AUTOMOBILE INSURANCE CO 16 - 2014-06-30 14,033,160 $1,424,086,000 0
   VANGUARD GROUP INC 282 - 2014-06-30 9,609,703 $975,192,000 232,468
   BANK OF NEW YORK MELLON CORP 106 - 2014-06-30 7,066,413 $717,099,000 186,125
   STATE STREET CORP 296 - 2014-06-30 6,238,421 $633,072,000 127,470
   WELLS FARGO & CO/MN 192 - 2014-06-30 3,190,217 $323,744,000 7,429
   BLACKROCK INSTITUTIONAL TRUST COMPANY 363 - 2014-06-30 3,112,112 $315,817,000 6,193
   HARDING LOEVNER MANAGEMENT L P/NJ/ 13 - 2014-06-30 3,062,117 $310,743,000 8,254
   INVESCO LTD 226 - 2014-06-30 2,712,816 $275,296,000 -90,125
   FMR LLC 534 - 2014-06-30 2,676,835 $271,645,000 -74,654
   J P MORGAN CHASE & CO 310 - 2014-06-30 2,553,343 $259,112,000 3,689
   YACKTMAN ASSET MANAGEMENT CO/IL 25 - 2014-06-30 2,398,185 $243,368,000 642
   MASSACHUSETTS FINANCIAL SERVICES CO /MA/ 168 *New 2014-06-30 2,258,603 $229,204,000 2,258,603
   BLACKROCK FUND ADVISORS 426 - 2014-06-30 1,827,762 $185,481,000 183,703
   NORTHERN TRUST CORP 331 - 2014-06-30 1,714,353 $173,972,000 -63,322
   CAPITAL RESEARCH GLOBAL INVESTORS 259 - 2014-06-30 1,200,000 $121,776,000 0
   FRANKLIN RESOURCES INC 356 - 2014-06-30 1,105,350 $112,171,000 -5,161
   BLACKROCK GROUP LTD 358 - 2014-06-30 1,064,533 $108,028,000 68,637
   FUNDSMITH LLP 13 - 2014-06-30 697,953 $99,814,000 -511,388
   GEODE CAPITAL MANAGEMENT LLC 324 - 2014-06-30 937,518 $95,086,000 1,371
   CAPITAL COUNSEL LLC/NY 10 - 2014-06-30 919,016 $93,262,000 -1,203
   JANUS CAPITAL MANAGEMENT LLC 328 - 2014-06-30 778,800 $79,033,000 489,300
   PRICE T ROWE ASSOCIATES INC /MD/ 750 - 2014-06-30 688,112 $69,830,000 -42,472
   TIAA CREF INVESTMENT MANAGEMENT LLC 397 - 2014-06-30 670,572 $68,050,000 88,504
   BTIM CORP. 13 - 2014-06-30 640,631 $65,011,000 -23,448
   NEUBERGER BERMAN GROUP LLC 398 - 2014-06-30 605,104 $61,406,000 3,047
   BANK OF AMERICA CORP /DE/ 635 - 2014-06-30 535,629 $54,356,000 31,119
   BLACKROCK INC. 270 - 2014-06-30 523,228 $53,097,000 35,584
   LEGAL & GENERAL GROUP PLC 372 - 2014-06-30 495,279 $50,261,000 -750
   BLACKROCK ADVISORS LLC 355 - 2014-06-30 477,446 $48,451,000 72,721
   GOLDMAN SACHS GROUP INC/ 876 - 2014-06-30 441,338 $44,787,000 56,398
   MACKENZIE FINANCIAL CORP 107 - 2014-06-30 441,292 $44,782,000 20,052
   GENEVA CAPITAL MANAGEMENT LTD/WI 45 - 2014-06-30 436,265 $44,272,000 -27,348
   UBS GLOBAL ASSET MANAGEMENT AMERICAS INC 435 - 2014-06-30 433,786 $44,021,000 17,236
   MARATHON ASSET MANAGEMENT LLP 34 - 2014-03-31 454,168 $42,408,000 -581,306
   RENAISSANCE TECHNOLOGIES LLC 237 - 2014-06-30 398,700 $40,460,000 85,400
   AMERICAN CENTURY COMPANIES INC 409 - 2014-06-30 394,783 $40,063,000 -178,009
   CREDIT SUISSE/ 513 - 2014-06-30 388,038 $39,378,000 53,361
   CANADA PENSION PLAN INVESTMENT BOARD 170 - 2014-06-30 351,190 $35,639,000 95,700
   NEW YORK STATE COMMON RETIREMENT FUND 418 - 2014-06-30 345,056 $35,016,000 0
   DEUTSCHE BANK AG 675 - 2014-06-30 327,941 $33,274,000 38,653
   PGGM INVESTMENTS 131 - 2014-03-31 353,190 $32,981,000 246,076
   RUSSELL FRANK CO/ 369 - 2014-06-30 324,302 $32,910,000 302,429
   ALYESKA INVESTMENT GROUP, L.P. 14 - 2014-06-30 317,192 $32,189,000 73,307
   MORGAN STANLEY 1074 - 2014-06-30 313,139 $31,778,000 -59,053
   CALIFORNIA PUBLIC EMPLOYEES RETIREMENT SYSTEM 433 - 2014-06-30 311,872 $31,649,000 8,200
   FIERA SCEPTRE INC. - 2014-06-30 301,727 $30,619,000 24,448
   SUMITOMO MITSUI TRUST HOLDINGS, INC. 378 - 2014-06-30 288,015 $29,228,000 -8,894
   GRANTHAM MAYO VAN OTTERLOO & CO LLC 117 - 2014-06-30 286,278 $29,051,000 50,000
   ROYAL BANK OF CANADA 510 - 2014-06-30 283,546 $28,776,000 -15,002
   GUGGENHEIM CAPITAL LLC 513 - 2014-06-30 271,359 $27,537,000 25,930
   ALLIANCEBERNSTEIN L.P. 611 - 2014-06-30 268,125 $27,209,000 15,589
   BLACKROCK INVESTMENT MANAGEMENT LLC 449 - 2014-06-30 264,223 $26,813,000 38,774
   TEACHERS ADVISORS INC 463 - 2014-06-30 262,475 $26,636,000 35,840
   NATIONWIDE FUND ADVISORS 239 - 2014-06-30 246,394 $25,004,000 -158
   DAVIS SELECTED ADVISERS 76 - 2014-06-30 239,643 $24,319,000 -1,536
   SCHWAB CHARLES INVESTMENT MANAGEMENT INC 407 - 2014-03-31 255,786 $23,886,000 7,367
   STACK FINANCIAL MANAGEMENT INC 4 - 2014-06-30 231,956 $23,539,000 4,194
   MITSUBISHI UFJ TRUST & BANKING CORP 406 - 2014-06-30 227,058 $23,042,000 173
   RHUMBLINE ADVISERS 272 - 2014-06-30 224,854 $22,818,000 -17,792
   EUCLID ADVISORS LLC 149 - 2014-06-30 221,861 $22,514,000 -60,630
   CALIFORNIA STATE TEACHERS RETIREMENT SYSTEM 339 - 2014-06-30 218,988 $22,223,000 100
   CONGRESS ASSET MANAGEMENT CO /MA 58 - 2014-06-30 215,789 $21,898,000 11,025
   ALPS ADVISERS INC 34 - 2014-06-30 109,086 $21,350,000 102,885
   NEW YORK STATE TEACHERS RETIREMENT SYSTEM 342 - 2014-06-30 210,206 $21,332,000 -8,563
   HORIZON KINETICS LLC 46 - 2014-06-30 204,792 $20,783,000 -14,073
   CLIFFORD ASSOCIATES LLC 23 - 2014-06-30 198,844 $20,179,000 -3,250
   CHEVY CHASE TRUST HOLDINGS, INC. 184 - 2014-06-30 189,087 $19,189,000 -4,188
   MCDANIEL TERRY & CO 4 - 2014-06-30 187,940 $19,072,000 1,620
   PRUDENTIAL FINANCIAL INC 519 - 2014-06-30 187,480 $19,026,000 6,333
   STATE BOARD OF ADMINISTRATION OF FLORIDA RETIREMEN 339 - 2014-06-30 182,935 $18,564,000 -278
   FIRST TRUST ADVISORS LP 424 - 2014-06-30 173,833 $17,641,000 45,185
   APG ALL PENSIONS GROUP 447 - 2014-06-30 172,430 $17,498,000 45,100
   COMPASS CAPITAL MANAGEMENT INC/ 15 - 2014-06-30 166,022 $16,848,000 -2,272
   DIMENSIONAL FUND ADVISORS INC 1822 - 2014-06-30 165,076 $16,752,000 -2,528
   SAWGRASS ASSET MANAGEMENT LLC 42 - 2014-06-30 162,766 $16,517,000 -1,440
   PRINCIPAL FINANCIAL GROUP INC 631 - 2014-06-30 162,730 $16,514,000 -6,556
   US BANCORP 234 - 2014-06-30 161,358 $16,374,000 480
   EATON VANCE MANAGEMENT 245 - 2014-06-30 157,202 $15,953,000 994
   REIK & CO. LLC 5 - 2014-06-30 156,708 $15,902,000 1,500
   ABERDEEN ASSET MANAGEMENT PLC/UK 268 - 2014-06-30 152,333 $15,459,000 139,777
   PUBLIC EMPLOYEES RETIREMENT ASSOCIATION OF COLORAD 182 - 2014-06-30 149,743 $15,196,000 -2,186
   GLENMEDE TRUST CO NA 121 - 2014-06-30 148,589 $15,077,000 580
   MIZUHO TRUST & BANKING CO., LTD. 387 - 2014-06-30 157,358 $14,694,000 0
   BNP Paribas Investment Partners S.A. 208 - 2014-06-30 144,128 $14,626,000 -41,243
   CONFLUENCE INVESTMENT MANAGEMENT LLC 52 - 2014-06-30 140,552 $14,263,000 302
   NICHOLS & PRATT ADVISERS LLP /MA 30 - 2014-06-30 139,851 $14,204,000 600
   Winton Capital Group Ltd 312 - 2014-06-30 137,621 $13,966,000 0
   SG AMERICAS SECURITIES LLC 246 - 2014-06-30 129,572 $13,149,000 -82,257
   EULAV ASSET MANAGEMENT 35 - 2014-03-31 135,700 $12,672,000 0
   EDGE ASSET MANAGEMENT INC 179 - 2014-06-30 122,611 $12,443,000 2,500
   SCOTIA CAPITAL INC. 61 - 2014-06-30 122,595 $12,442,000 -1,335
   BLACKROCK JAPAN CO LTD 389 - 2014-06-30 118,692 $12,045,000 -15,918
   PARAMETRIC PORTFOLIO ASSOCIATES 663 - 2014-06-30 118,458 $12,021,000 -1,015
   SHAYNE & CO., LLC 4 - 2014-06-30 117,781 $11,952,000 -424
   SEGALL BRYANT & HAMILL 118 *New 2014-06-30 117,295 $11,903,000 117,295
   HSBC HOLDINGS PLC 480 - 2014-06-30 116,947 $11,867,000 5,659
   Swiss National Bank 392 - 2014-06-30 116,446 $11,817,000 500
   PUTNAM INVESTMENTS LLC 426 - 2014-06-30 111,925 $11,358,000 1,099
   KEYBANK NATIONAL ASSOCIATION/OH 181 - 2014-06-30 110,374 $11,201,000 -3,259
   FENIMORE ASSET MANAGEMENT INC 46 - 2014-06-30 110,000 $11,163,000 0

  100 Records found
  1    
  Page 1 of 1
Free Registration Required For Full Results